Time;durP1;ratioP1;P1;durP2;ratioP2;P2;SDS_P1;SDS_P2;PMS_P1;PMS_P2;Temp;Humidity;BMP_temperature;BMP_pressure;BME280_temperature;BME280_humidity;BME280_pressure;Samples;Min_cycle;Max_cycle;Signal;HPM_P1;HPM_P2
2022/09/16 00:01:27;;;;;;;4.73;4.13;;;14.50;99.90;;;;;;5089491;28;20470;-74
2022/09/16 00:03:55;;;;;;;4.47;4.07;;;14.40;99.90;;;;;;5086793;28;20374;-74
2022/09/16 00:06:26;;;;;;;5.90;4.50;;;14.30;99.90;;;;;;5080693;28;20959;-74
2022/09/16 00:08:59;;;;;;;4.82;4.43;;;14.40;99.90;;;;;;5087403;28;20794;-73
2022/09/16 00:11:25;;;;;;;4.75;4.10;;;14.40;99.90;;;;;;5085751;28;21046;-74
2022/09/16 00:13:51;;;;;;;5.20;4.70;;;14.30;99.90;;;;;;5089033;28;20382;-74
2022/09/16 00:16:23;;;;;;;4.90;4.50;;;14.30;99.90;;;;;;5082387;28;20374;-73
2022/09/16 00:18:52;;;;;;;4.88;4.20;;;14.30;99.90;;;;;;5092101;28;20389;-74
2022/09/16 00:21:17;;;;;;;5.00;4.20;;;14.30;99.90;;;;;;5092197;28;20386;-73
2022/09/16 00:23:43;;;;;;;4.50;4.10;;;14.30;99.90;;;;;;5081927;28;20753;-74
2022/09/16 00:26:09;;;;;;;8.07;4.40;;;14.30;99.90;;;;;;5071839;28;20395;-73
2022/09/16 00:28:34;;;;;;;4.40;4.00;;;14.30;99.90;;;;;;5071705;28;20395;-74
2022/09/16 00:31:00;;;;;;;4.80;4.03;;;14.20;99.90;;;;;;5071696;28;20410;-74
2022/09/16 00:33:27;;;;;;;6.43;4.22;;;14.20;99.90;;;;;;5071386;28;20386;-73
2022/09/16 00:36:03;;;;;;;4.70;4.30;;;14.20;99.90;;;;;;5071782;28;20386;-73
2022/09/16 00:38:29;;;;;;;4.45;4.05;;;14.20;99.90;;;;;;5071296;28;20382;-73
2022/09/16 00:40:54;;;;;;;4.03;3.73;;;14.20;99.90;;;;;;5071540;28;20694;-73
2022/09/16 00:43:20;;;;;;;4.07;3.67;;;14.20;99.90;;;;;;5076776;28;20746;-73
2022/09/16 00:45:54;;;;;;;6.72;3.90;;;14.20;99.90;;;;;;5085840;28;20390;-73
2022/09/16 00:48:23;;;;;;;3.72;3.42;;;14.10;99.90;;;;;;5089997;28;20434;-73
2022/09/16 00:50:55;;;;;;;4.72;3.70;;;14.20;99.90;;;;;;5091564;28;20425;-73
2022/09/16 00:53:25;;;;;;;4.53;4.03;;;14.20;99.90;;;;;;5091148;28;20375;-73
2022/09/16 00:55:53;;;;;;;4.97;4.47;;;14.20;99.90;;;;;;5091492;28;20374;-74
2022/09/16 00:58:30;;;;;;;4.03;3.70;;;14.10;99.90;;;;;;5091315;28;20469;-74
2022/09/16 01:00:55;;;;;;;4.45;4.05;;;14.00;99.90;;;;;;5091291;28;20384;-74
2022/09/16 01:03:22;;;;;;;4.72;4.28;;;14.10;99.90;;;;;;5090814;28;20386;-73
2022/09/16 01:05:49;;;;;;;4.65;4.05;;;14.00;99.90;;;;;;5091211;28;20374;-73
2022/09/16 01:08:14;;;;;;;4.47;3.65;;;14.10;99.90;;;;;;5089666;28;20914;-73
2022/09/16 01:10:41;;;;;;;3.92;3.63;;;14.00;99.90;;;;;;5091132;28;20390;-73
2022/09/16 01:13:10;;;;;;;4.60;3.90;;;14.00;99.90;;;;;;5090882;28;20469;-73
2022/09/16 01:15:40;;;;;;;5.97;4.40;;;14.00;99.90;;;;;;5091041;28;20464;-74
2022/09/16 01:18:27;;;;;;;5.10;4.18;;;14.00;99.90;;;;;;5089201;28;20547;-73
2022/09/16 01:21:22;;;;;;;6.38;4.25;;;13.90;99.90;;;;;;5090968;28;20382;-73
2022/09/16 01:24:02;;;;;;;4.60;4.10;;;14.00;99.90;;;;;;5080074;28;21041;-73
2022/09/16 01:26:46;;;;;;;5.95;4.20;;;14.10;99.90;;;;;;5070560;28;20391;-73
2022/09/16 01:29:34;;;;;;;4.30;4.00;;;14.10;99.90;;;;;;5068991;28;20490;-74
2022/09/16 01:32:44;;;;;;;4.15;3.75;;;14.20;99.90;;;;;;5070916;28;20789;-73
2022/09/16 01:35:40;;;;;;;3.95;3.65;;;14.20;99.90;;;;;;4972645;28;20390;-73
2022/09/16 01:38:24;;;;;;;4.68;3.90;;;14.20;99.90;;;;;;5070327;28;20384;-74
2022/09/16 01:41:04;;;;;;;4.27;3.87;;;14.20;99.90;;;;;;5070151;28;20384;-74
2022/09/16 01:43:49;;;;;;;3.97;3.67;;;14.20;99.90;;;;;;5069791;28;20463;-74
2022/09/16 01:46:30;;;;;;;4.90;3.88;;;14.20;99.90;;;;;;5068923;28;20387;-73
2022/09/16 01:49:18;;;;;;;4.63;3.75;;;14.20;99.90;;;;;;5070077;28;20478;-74
2022/09/16 01:51:56;;;;;;;4.60;3.80;;;14.10;99.90;;;;;;5070196;28;20386;-74
2022/09/16 01:54:40;;;;;;;4.00;3.67;;;14.20;99.90;;;;;;5069823;28;20429;-73
2022/09/16 01:57:23;;;;;;;7.70;3.87;;;14.10;99.90;;;;;;5070158;28;20378;-74
2022/09/16 02:00:05;;;;;;;6.60;4.03;;;14.20;99.90;;;;;;5069920;28;20432;-73
2022/09/16 02:02:38;;;;;;;3.83;3.47;;;14.10;99.90;;;;;;5068458;28;20383;-74
2022/09/16 02:05:18;;;;;;;4.60;4.20;;;14.10;99.90;;;;;;5069885;28;20387;-73
2022/09/16 02:07:49;;;;;;;4.70;4.28;;;14.00;99.90;;;;;;5070055;28;20423;-74
2022/09/16 02:10:27;;;;;;;6.50;3.78;;;14.00;99.90;;;;;;5070103;28;20739;-74
2022/09/16 02:12:58;;;;;;;4.43;3.80;;;14.00;99.90;;;;;;5069711;28;20375;-74
2022/09/16 02:15:26;;;;;;;5.20;4.20;;;14.00;99.90;;;;;;5069888;28;20727;-74
2022/09/16 02:18:13;;;;;;;4.30;3.90;;;14.10;99.90;;;;;;5069958;28;20384;-74
2022/09/16 02:20:44;;;;;;;5.10;4.70;;;14.10;99.90;;;;;;5069910;28;20383;-74
2022/09/16 02:23:18;;;;;;;4.80;4.40;;;14.10;99.90;;;;;;5074582;28;20392;-74
2022/09/16 02:25:46;;;;;;;4.70;4.25;;;14.10;99.90;;;;;;5090115;28;20382;-74
2022/09/16 02:28:17;;;;;;;5.25;4.30;;;14.20;99.90;;;;;;5089883;28;20398;-74
2022/09/16 02:30:48;;;;;;;5.18;4.68;;;14.20;99.90;;;;;;5093103;28;20374;-74
2022/09/16 02:33:15;;;;;;;5.88;4.50;;;14.20;99.90;;;;;;5094039;28;20413;-74
2022/09/16 02:35:44;;;;;;;4.90;4.27;;;14.20;99.90;;;;;;5094217;28;20990;-74
2022/09/16 02:38:40;;;;;;;5.65;4.22;;;14.20;99.90;;;;;;5094173;28;20465;-74
2022/09/16 02:41:13;;;;;;;5.00;4.20;;;14.30;99.90;;;;;;5092878;28;20394;-74
2022/09/16 02:43:39;;;;;;;4.70;4.20;;;14.30;99.90;;;;;;5092124;28;20389;-74
2022/09/16 02:46:05;;;;;;;4.50;4.10;;;14.30;99.90;;;;;;5093890;28;20807;-73
2022/09/16 02:48:37;;;;;;;4.90;4.50;;;14.20;99.90;;;;;;5093770;28;20400;-74
2022/09/16 02:51:31;;;;;;;4.80;4.30;;;14.20;99.90;;;;;;5093864;28;20871;-73
2022/09/16 02:54:00;;;;;;;4.80;4.30;;;14.20;99.90;;;;;;5093426;28;20530;-74
2022/09/16 02:56:34;;;;;;;7.35;4.53;;;14.20;99.90;;;;;;5093713;28;20447;-74
2022/09/16 02:59:02;;;;;;;6.50;4.35;;;14.20;99.90;;;;;;5093600;28;20385;-74
2022/09/16 03:01:32;;;;;;;6.30;3.92;;;14.20;99.90;;;;;;5093767;28;20461;-74
2022/09/16 03:03:58;;;;;;;4.43;4.13;;;14.20;99.90;;;;;;5093352;28;20389;-74
2022/09/16 03:06:25;;;;;;;7.82;4.75;;;14.10;99.90;;;;;;5093515;28;20378;-74
2022/09/16 03:08:54;;;;;;;4.88;4.45;;;14.10;99.90;;;;;;5093474;28;20421;-74
2022/09/16 03:11:27;;;;;;;5.22;4.72;;;14.30;99.90;;;;;;5092216;28;20431;-74
2022/09/16 03:14:17;;;;;;;4.80;4.40;;;14.20;99.90;;;;;;5093088;28;20382;-74
2022/09/16 03:16:54;;;;;;;5.20;4.10;;;14.30;99.90;;;;;;5093290;28;20378;-74
2022/09/16 03:19:38;;;;;;;4.50;4.00;;;14.20;99.90;;;;;;5093334;28;20378;-74
2022/09/16 03:22:30;;;;;;;4.78;4.38;;;14.20;99.90;;;;;;5093255;28;20392;-74
2022/09/16 03:25:17;;;;;;;5.15;3.80;;;14.30;99.90;;;;;;5092896;28;20728;-74
2022/09/16 03:28:01;;;;;;;4.68;4.28;;;14.20;99.90;;;;;;5093040;28;20873;-74
2022/09/16 03:30:31;;;;;;;4.97;4.57;;;14.20;99.90;;;;;;5093054;28;20391;-74
2022/09/16 03:33:04;;;;;;;5.50;4.30;;;14.20;99.90;;;;;;5093193;28;20434;-74
2022/09/16 03:35:35;;;;;;;5.15;4.50;;;14.20;99.90;;;;;;5093292;28;20871;-74
2022/09/16 03:38:02;;;;;;;5.27;4.23;;;14.30;99.90;;;;;;5093441;28;20830;-74
2022/09/16 03:40:30;;;;;;;5.95;4.40;;;14.30;99.90;;;;;;5093014;28;20390;-74
2022/09/16 03:42:57;;;;;;;4.80;4.30;;;14.40;99.90;;;;;;5092734;28;20435;-74
2022/09/16 03:45:22;;;;;;;5.82;4.60;;;14.40;99.90;;;;;;5091913;28;20390;-74
2022/09/16 03:47:50;;;;;;;6.45;4.97;;;14.50;99.90;;;;;;5093088;28;20443;-74
2022/09/16 03:50:17;;;;;;;5.10;4.70;;;14.30;99.90;;;;;;5093091;28;20425;-74
2022/09/16 03:52:43;;;;;;;5.47;4.97;;;14.40;99.90;;;;;;5092956;28;20998;-73
2022/09/16 03:55:09;;;;;;;5.10;4.60;;;14.40;99.90;;;;;;5092992;28;20374;-74
2022/09/16 03:57:35;;;;;;;5.88;5.10;;;14.30;99.90;;;;;;5093038;28;20370;-74
2022/09/16 04:00:02;;;;;;;5.68;5.05;;;14.30;99.90;;;;;;5091960;28;20763;-73
2022/09/16 04:02:28;;;;;;;7.35;5.40;;;14.30;99.90;;;;;;5091322;28;20397;-74
2022/09/16 04:04:54;;;;;;;5.57;4.97;;;14.30;99.90;;;;;;5085702;28;20387;-74
2022/09/16 04:07:19;;;;;;;6.03;5.43;;;14.40;99.90;;;;;;5072735;28;20881;-74
2022/09/16 04:09:45;;;;;;;5.80;5.20;;;14.40;99.90;;;;;;5071045;28;20772;-73
2022/09/16 04:12:10;;;;;;;5.93;5.32;;;14.30;99.90;;;;;;5072772;28;20383;-74
2022/09/16 04:14:36;;;;;;;5.90;5.40;;;14.30;99.90;;;;;;5072243;28;20857;-74
2022/09/16 04:17:02;;;;;;;5.20;4.70;;;14.40;99.90;;;;;;5072854;28;20441;-74
2022/09/16 04:19:27;;;;;;;5.83;5.23;;;14.30;99.90;;;;;;5072339;28;20724;-74
2022/09/16 04:21:53;;;;;;;5.57;4.97;;;14.40;99.90;;;;;;5072516;28;20380;-73
2022/09/16 04:24:19;;;;;;;6.07;5.47;;;14.40;99.90;;;;;;5071892;28;20408;-73
2022/09/16 04:26:44;;;;;;;5.32;4.82;;;14.30;99.90;;;;;;5072402;28;20873;-74
2022/09/16 04:29:10;;;;;;;5.60;5.10;;;14.20;99.90;;;;;;5072498;28;20449;-73
2022/09/16 04:31:36;;;;;;;6.00;5.03;;;14.20;99.90;;;;;;5077577;28;20384;-74
2022/09/16 04:34:03;;;;;;;6.30;5.70;;;14.20;99.90;;;;;;5083907;28;20444;-73
2022/09/16 04:36:30;;;;;;;5.78;5.28;;;14.30;99.90;;;;;;5089074;28;20405;-73
2022/09/16 04:38:55;;;;;;;5.70;5.20;;;14.30;99.90;;;;;;5102596;28;20401;-73
2022/09/16 04:41:24;;;;;;;5.30;4.80;;;14.20;99.90;;;;;;5101196;28;20975;-73
2022/09/16 04:43:51;;;;;;;6.80;6.20;;;14.20;99.90;;;;;;5098335;28;20689;-73
2022/09/16 04:46:17;;;;;;;5.18;4.78;;;14.30;99.90;;;;;;5072445;22;20439;-72
2022/09/16 04:48:47;;;;;;;6.40;5.53;;;14.20;99.90;;;;;;5041534;28;20405;-72
2022/09/16 04:51:13;;;;;;;5.35;4.85;;;14.30;99.90;;;;;;5032206;28;20401;-72
2022/09/16 04:53:40;;;;;;;6.50;5.23;;;14.30;99.90;;;;;;5043399;28;20902;-71
2022/09/16 04:56:14;;;;;;;7.65;5.10;;;14.30;99.90;;;;;;5042135;28;20414;-71
2022/09/16 04:58:44;;;;;;;6.43;5.82;;;14.30;99.90;;;;;;5051866;28;20903;-71
2022/09/16 05:01:13;;;;;;;5.93;5.32;;;14.30;99.90;;;;;;5041015;28;20910;-72
2022/09/16 05:03:43;;;;;;;6.30;5.70;;;14.30;99.90;;;;;;5039526;28;20415;-71
2022/09/16 05:06:11;;;;;;;6.82;5.35;;;14.20;99.90;;;;;;5041427;28;20440;-73
2022/09/16 05:08:37;;;;;;;7.07;5.80;;;14.20;99.90;;;;;;5043102;28;20897;-72
2022/09/16 05:11:08;;;;;;;7.10;5.53;;;14.30;99.90;;;;;;5046945;28;20432;-72
2022/09/16 05:13:35;;;;;;;7.10;5.50;;;14.30;99.90;;;;;;5049838;28;20407;-72
2022/09/16 05:16:21;;;;;;;6.13;5.53;;;14.40;99.90;;;;;;5050766;28;20398;-72
2022/09/16 05:18:49;;;;;;;5.70;5.20;;;14.40;99.90;;;;;;5050933;28;20436;-71
2022/09/16 05:21:19;;;;;;;7.43;5.80;;;14.40;99.90;;;;;;5050909;28;20856;-72
2022/09/16 05:23:45;;;;;;;6.22;5.63;;;14.40;99.90;;;;;;5049689;28;21146;-72
2022/09/16 05:26:19;;;;;;;5.38;4.97;;;14.40;99.90;;;;;;5048987;28;20398;-73
2022/09/16 05:28:45;;;;;;;5.38;4.90;;;14.30;99.90;;;;;;5053415;28;20543;-73
2022/09/16 05:31:10;;;;;;;6.13;5.53;;;14.30;99.90;;;;;;5052882;28;20469;-73
2022/09/16 05:33:36;;;;;;;7.60;5.60;;;14.40;99.90;;;;;;5048629;28;20893;-72
2022/09/16 05:36:04;;;;;;;6.50;5.35;;;14.30;99.90;;;;;;5041820;28;20385;-72
2022/09/16 05:38:29;;;;;;;5.95;5.45;;;14.40;99.90;;;;;;5039600;28;20402;-71
2022/09/16 05:40:58;;;;;;;6.07;5.57;;;14.30;99.90;;;;;;5045881;28;20408;-72
2022/09/16 05:43:24;;;;;;;6.40;5.80;;;14.40;99.90;;;;;;5050489;28;20389;-72
2022/09/16 05:45:51;;;;;;;5.43;5.03;;;14.50;99.90;;;;;;5050542;28;20406;-70
2022/09/16 05:48:17;;;;;;;6.17;5.57;;;14.40;99.90;;;;;;5050528;28;20451;-70
2022/09/16 05:50:57;;;;;;;5.87;5.37;;;14.30;99.90;;;;;;5050518;28;20790;-70
2022/09/16 05:53:24;;;;;;;6.43;5.82;;;14.40;99.90;;;;;;5050272;28;20393;-70
2022/09/16 05:55:58;;;;;;;7.20;5.65;;;14.40;99.90;;;;;;5050497;28;20424;-72
2022/09/16 05:58:25;;;;;;;7.00;6.07;;;14.30;99.90;;;;;;5050699;28;20966;-71
2022/09/16 06:00:56;;;;;;;5.90;5.40;;;14.50;99.90;;;;;;5050420;28;20946;-72
2022/09/16 06:03:22;;;;;;;5.95;5.45;;;14.50;99.90;;;;;;5050292;28;20396;-71
2022/09/16 06:05:47;;;;;;;6.75;5.70;;;14.50;99.90;;;;;;5052420;28;20780;-71
2022/09/16 06:08:13;;;;;;;7.33;6.23;;;14.40;99.90;;;;;;5050079;28;20424;-71
2022/09/16 06:10:39;;;;;;;6.50;5.90;;;14.40;99.90;;;;;;5041708;28;20504;-70
2022/09/16 06:13:05;;;;;;;6.82;6.22;;;14.50;99.90;;;;;;5039300;28;20484;-70
2022/09/16 06:15:31;;;;;;;7.93;7.13;;;14.40;99.90;;;;;;5050374;28;20796;-71
2022/09/16 06:17:57;;;;;;;7.90;6.40;;;14.40;99.90;;;;;;5046252;28;20412;-71
2022/09/16 06:20:23;;;;;;;6.75;6.15;;;14.60;99.90;;;;;;5038710;28;20409;-70
2022/09/16 06:22:48;;;;;;;7.15;5.70;;;14.60;99.90;;;;;;5023385;28;20476;-70
2022/09/16 06:25:14;;;;;;;7.35;5.55;;;14.60;99.90;;;;;;5050232;28;20384;-73
2022/09/16 06:27:40;;;;;;;7.07;5.80;;;14.70;99.90;;;;;;5049001;28;20405;-71
2022/09/16 06:30:05;;;;;;;6.00;5.40;;;14.70;99.90;;;;;;5037383;28;20552;-70
2022/09/16 06:32:31;;;;;;;7.60;6.10;;;14.70;99.90;;;;;;5041211;28;20401;-71
2022/09/16 06:34:57;;;;;;;6.00;5.50;;;14.80;99.90;;;;;;5049674;28;20411;-71
2022/09/16 06:37:22;;;;;;;6.30;5.70;;;14.80;99.90;;;;;;5045467;28;20406;-71
2022/09/16 06:39:48;;;;;;;6.90;6.10;;;14.80;99.90;;;;;;5039244;28;20464;-70
2022/09/16 06:42:13;;;;;;;7.77;5.67;;;14.80;99.90;;;;;;5035476;28;20403;-71
2022/09/16 06:44:39;;;;;;;5.82;5.43;;;14.80;99.90;;;;;;5046805;28;20420;-71
2022/09/16 06:47:04;;;;;;;6.40;5.80;;;14.80;99.90;;;;;;5045156;28;20415;-71
2022/09/16 06:49:30;;;;;;;6.63;5.93;;;14.70;99.90;;;;;;5045399;28;20431;-71
2022/09/16 06:51:55;;;;;;;6.75;6.15;;;14.70;99.90;;;;;;5049104;28;20797;-71
2022/09/16 06:54:21;;;;;;;6.73;5.47;;;14.70;99.90;;;;;;5060978;28;20398;-71
2022/09/16 06:56:46;;;;;;;6.60;6.00;;;14.80;99.90;;;;;;5048299;28;20409;-72
2022/09/16 06:59:13;;;;;;;6.15;5.30;;;14.80;99.90;;;;;;5059361;28;20476;-71
2022/09/16 07:01:38;;;;;;;7.57;5.93;;;14.90;99.90;;;;;;5049783;28;20408;-71
2022/09/16 07:04:09;;;;;;;7.10;6.40;;;15.00;99.90;;;;;;5048857;28;20409;-71
2022/09/16 07:06:35;;;;;;;7.22;6.63;;;15.10;99.90;;;;;;5041268;28;20417;-73
2022/09/16 07:09:00;;;;;;;6.57;5.97;;;15.00;99.90;;;;;;5049190;28;20902;-71
2022/09/16 07:11:27;;;;;;;6.60;5.90;;;15.00;99.90;;;;;;5047364;28;20947;-71
2022/09/16 07:13:53;;;;;;;7.57;6.70;;;14.90;99.90;;;;;;5055673;28;20427;-71
2022/09/16 07:16:21;;;;;;;8.35;7.55;;;14.90;99.90;;;;;;5051735;28;20385;-71
2022/09/16 07:18:50;;;;;;;10.05;7.35;;;14.90;99.90;;;;;;5053392;28;20417;-71
2022/09/16 07:21:18;;;;;;;7.95;7.15;;;14.90;99.90;;;;;;5053416;28;20852;-71
2022/09/16 07:23:45;;;;;;;8.30;7.50;;;14.90;99.90;;;;;;5052937;28;20389;-71
2022/09/16 07:26:15;;;;;;;7.93;7.22;;;14.90;99.90;;;;;;5033304;28;20772;-71
2022/09/16 07:28:42;;;;;;;8.50;7.70;;;14.90;99.90;;;;;;5033935;28;20903;-71
2022/09/16 07:31:14;;;;;;;7.77;7.07;;;14.70;99.90;;;;;;5052327;28;20752;-71
2022/09/16 07:33:42;;;;;;;7.45;6.85;;;14.40;99.90;;;;;;5049727;28;20389;-72
2022/09/16 07:36:10;;;;;;;7.65;6.95;;;14.20;99.90;;;;;;5050844;28;20979;-72
2022/09/16 07:38:36;;;;;;;10.60;9.18;;;14.00;99.90;;;;;;5047842;28;20397;-72
2022/09/16 07:41:18;;;;;;;10.60;9.50;;;14.00;99.90;;;;;;5052942;28;20431;-74
2022/09/16 07:43:43;;;;;;;10.18;9.18;;;13.90;99.90;;;;;;5041122;28;20465;-71
2022/09/16 07:46:10;;;;;;;12.07;10.65;;;13.80;99.90;;;;;;5048109;28;20405;-72
2022/09/16 07:48:36;;;;;;;12.23;11.00;;;13.70;99.90;;;;;;5052487;28;20405;-72
2022/09/16 07:51:06;;;;;;;11.82;10.63;;;13.70;99.90;;;;;;5051070;28;20393;-72
2022/09/16 07:53:32;;;;;;;12.23;11.02;;;13.60;99.90;;;;;;5051740;28;20446;-71
2022/09/16 07:56:03;;;;;;;11.77;10.67;;;13.60;99.90;;;;;;5046159;28;20764;-73
2022/09/16 07:58:29;;;;;;;11.93;10.40;;;13.50;99.90;;;;;;5049717;28;20813;-71
2022/09/16 08:00:55;;;;;;;9.90;9.00;;;13.50;99.90;;;;;;5046403;28;20408;-72
2022/09/16 08:03:21;;;;;;;10.70;9.70;;;13.50;99.90;;;;;;5046608;28;20421;-70
2022/09/16 08:05:46;;;;;;;10.90;9.80;;;13.50;99.90;;;;;;5052437;28;20562;-71
2022/09/16 08:08:12;;;;;;;10.30;9.30;;;13.50;99.90;;;;;;5058596;28;20415;-71
2022/09/16 08:10:38;;;;;;;12.35;9.48;;;13.50;99.90;;;;;;5054187;28;20929;-71
2022/09/16 08:13:05;;;;;;;9.20;8.30;;;13.40;99.90;;;;;;5053410;28;20397;-71
2022/09/16 08:15:31;;;;;;;8.65;7.85;;;13.50;99.90;;;;;;5045506;28;20887;-72
2022/09/16 08:17:56;;;;;;;7.88;7.07;;;13.60;99.90;;;;;;5045706;28;20426;-71
2022/09/16 08:20:23;;;;;;;6.78;6.07;;;13.50;99.90;;;;;;5042626;28;20985;-70
2022/09/16 08:22:48;;;;;;;5.80;5.30;;;13.50;99.90;;;;;;5053068;28;20711;-72
2022/09/16 08:25:14;;;;;;;5.00;4.60;;;13.50;99.90;;;;;;5044174;28;20434;-71
2022/09/16 08:27:39;;;;;;;6.00;5.33;;;13.60;99.90;;;;;;5037371;28;20848;-72
2022/09/16 08:30:05;;;;;;;5.78;5.28;;;13.70;99.90;;;;;;5046128;28;20951;-71
2022/09/16 08:32:31;;;;;;;5.50;5.10;;;13.70;99.90;;;;;;5047223;28;20767;-71
2022/09/16 08:34:57;;;;;;;5.20;4.80;;;13.70;99.90;;;;;;5046734;28;20394;-71
2022/09/16 08:37:22;;;;;;;5.70;5.20;;;13.60;99.90;;;;;;5033696;28;20455;-70
2022/09/16 08:39:48;;;;;;;4.27;3.97;;;13.70;99.90;;;;;;5051245;28;20400;-70
2022/09/16 08:43:02;;;;;;;4.40;4.00;;;13.70;99.90;;;;;;5052361;28;20393;-71
2022/09/16 08:45:31;;;;;;;4.20;3.90;;;13.70;99.90;;;;;;4960924;28;20732;-72
2022/09/16 08:48:01;;;;;;;4.20;3.72;;;13.60;99.90;;;;;;5043085;28;20934;-72
2022/09/16 08:50:31;;;;;;;3.58;3.22;;;13.70;99.90;;;;;;5053702;28;20428;-71
2022/09/16 08:53:01;;;;;;;4.32;3.70;;;13.70;99.90;;;;;;5048028;28;20956;-71
2022/09/16 08:55:33;;;;;;;4.07;3.50;;;13.80;99.90;;;;;;5072458;28;20375;-70
2022/09/16 08:58:13;;;;;;;4.13;3.83;;;13.80;99.90;;;;;;5072715;28;20394;-71
2022/09/16 09:00:41;;;;;;;4.30;3.90;;;13.90;99.90;;;;;;5054236;28;20405;-71
2022/09/16 09:03:29;;;;;;;3.40;3.10;;;13.90;99.90;;;;;;5072538;28;20411;-70
2022/09/16 09:05:57;;;;;;;3.50;3.20;;;14.00;99.90;;;;;;5043394;28;20425;-70
2022/09/16 09:08:40;;;;;;;3.40;3.10;;;14.00;99.90;;;;;;5045250;28;20561;-72
2022/09/16 09:11:32;;;;;;;2.90;2.70;;;14.00;99.90;;;;;;5045458;28;20407;-71
2022/09/16 09:14:16;;;;;;;2.70;2.50;;;14.10;99.90;;;;;;5065376;28;20412;-70
2022/09/16 09:16:54;;;;;;;2.33;2.13;;;14.20;99.90;;;;;;5050556;28;20397;-70
2022/09/16 09:19:24;;;;;;;2.37;2.17;;;14.30;99.90;;;;;;5040293;28;20451;-69
2022/09/16 09:22:04;;;;;;;2.60;2.20;;;14.30;99.90;;;;;;5050828;28;20476;-70
2022/09/16 09:24:43;;;;;;;2.20;2.00;;;14.40;99.90;;;;;;5049569;28;20442;-70
2022/09/16 09:27:27;;;;;;;1.90;1.80;;;14.50;99.90;;;;;;5046932;28;20401;-69
2022/09/16 09:30:18;;;;;;;2.40;2.10;;;14.50;99.90;;;;;;5040326;28;20410;-69
2022/09/16 09:32:53;;;;;;;3.20;2.90;;;14.50;99.90;;;;;;5050887;28;20425;-69
2022/09/16 09:35:49;;;;;;;2.00;1.80;;;14.60;99.90;;;;;;5042491;28;20444;-69
2022/09/16 09:38:45;;;;;;;2.33;2.13;;;14.70;99.90;;;;;;5039405;28;20420;-70
2022/09/16 09:41:16;;;;;;;2.97;2.13;;;14.70;99.90;;;;;;5056673;28;20480;-70
2022/09/16 09:44:00;;;;;;;2.40;2.20;;;14.70;99.90;;;;;;5050384;28;20389;-70
2022/09/16 09:46:39;;;;;;;3.10;2.60;;;14.80;99.90;;;;;;5057241;28;20391;-70
2022/09/16 09:49:15;;;;;;;2.40;2.20;;;14.70;99.90;;;;;;5059458;28;20478;-70
2022/09/16 09:51:48;;;;;;;2.40;2.20;;;14.80;99.90;;;;;;5044208;28;20468;-69
2022/09/16 09:54:34;;;;;;;1.95;1.85;;;14.80;99.90;;;;;;5040388;28;20401;-70
2022/09/16 09:57:12;;;;;;;2.97;1.80;;;14.70;99.90;;;;;;5052391;28;20400;-69
2022/09/16 09:59:47;;;;;;;2.60;1.90;;;14.70;99.90;;;;;;5043641;28;20386;-69
2022/09/16 10:02:18;;;;;;;2.53;2.33;;;14.60;99.90;;;;;;5032648;28;20476;-69
2022/09/16 10:04:44;;;;;;;3.65;2.10;;;14.40;99.90;;;;;;5049944;28;20515;-69
2022/09/16 10:07:14;;;;;;;2.60;2.25;;;14.40;99.90;;;;;;5050452;28;20883;-70
2022/09/16 10:09:58;;;;;;;2.25;2.05;;;14.40;99.90;;;;;;5049953;28;20495;-69
2022/09/16 10:12:34;;;;;;;2.00;1.80;;;14.40;99.90;;;;;;5050314;28;20408;-68
2022/09/16 10:15:01;;;;;;;2.50;2.30;;;14.50;99.90;;;;;;5050207;28;20938;-70
2022/09/16 10:17:29;;;;;;;2.75;2.30;;;14.60;99.90;;;;;;5032284;28;20450;-69
2022/09/16 10:20:19;;;;;;;2.55;2.35;;;14.60;99.90;;;;;;5050199;28;20384;-69
2022/09/16 10:22:58;;;;;;;2.40;2.20;;;14.80;99.90;;;;;;5031990;28;20435;-70
2022/09/16 10:25:25;;;;;;;2.80;2.30;;;14.90;99.90;;;;;;5050097;28;20393;-70
2022/09/16 10:27:58;;;;;;;2.60;2.20;;;14.80;99.90;;;;;;5050063;28;20389;-69
2022/09/16 10:30:25;;;;;;;2.40;2.10;;;15.00;99.90;;;;;;5050248;28;20814;-69
2022/09/16 10:32:58;;;;;;;2.28;2.08;;;15.30;99.90;;;;;;5049823;28;20390;-70
2022/09/16 10:35:30;;;;;;;3.50;2.28;;;15.50;99.90;;;;;;5049997;28;20415;-69
2022/09/16 10:38:00;;;;;;;2.10;1.90;;;15.40;99.90;;;;;;5050055;28;20381;-70
2022/09/16 10:40:26;;;;;;;2.67;2.30;;;15.20;99.90;;;;;;5050099;28;20859;-69
2022/09/16 10:42:55;;;;;;;2.60;2.40;;;15.30;99.90;;;;;;5049821;28;20464;-69
2022/09/16 10:45:28;;;;;;;2.50;2.30;;;15.10;99.90;;;;;;5065838;22;20473;-71
2022/09/16 10:47:58;;;;;;;2.90;2.42;;;15.10;99.90;;;;;;5029740;28;20379;-71
2022/09/16 10:50:25;;;;;;;3.25;2.63;;;15.40;99.90;;;;;;5030482;28;20440;-72
2022/09/16 10:52:51;;;;;;;2.70;2.50;;;15.50;99.90;;;;;;5033631;28;20384;-72
2022/09/16 10:55:23;;;;;;;2.80;2.60;;;15.60;99.90;;;;;;5038945;28;20439;-72
2022/09/16 10:57:49;;;;;;;2.95;2.65;;;15.60;99.90;;;;;;5053577;28;20446;-72
2022/09/16 11:00:23;;;;;;;4.20;3.30;;;15.60;99.90;;;;;;5035971;28;20472;-72
2022/09/16 11:03:11;;;;;;;3.30;3.00;;;15.50;99.90;;;;;;5053614;28;20392;-72
2022/09/16 11:05:48;;;;;;;3.67;2.75;;;15.50;99.90;;;;;;5035474;28;20381;-71
2022/09/16 11:08:28;;;;;;;3.80;3.30;;;15.20;99.90;;;;;;5053671;28;20405;-72
2022/09/16 11:11:09;;;;;;;3.20;2.90;;;15.20;99.90;;;;;;5053617;28;20388;-72
2022/09/16 11:14:11;;;;;;;3.50;3.20;;;15.10;99.90;;;;;;5053305;28;20378;-72
2022/09/16 11:16:59;;;;;;;3.50;3.20;;;15.10;99.90;;;;;;5015116;28;20435;-72
2022/09/16 11:19:47;;;;;;;3.60;3.30;;;15.10;99.90;;;;;;5053607;28;20420;-73
2022/09/16 11:22:20;;;;;;;3.80;3.00;;;15.20;99.90;;;;;;5053331;28;20492;-73
2022/09/16 11:24:51;;;;;;;3.50;3.20;;;15.00;99.90;;;;;;5052983;28;20390;-73
2022/09/16 11:27:44;;;;;;;3.70;3.40;;;15.00;99.90;;;;;;5053358;28;20393;-72
2022/09/16 11:30:21;;;;;;;3.40;3.15;;;14.90;99.90;;;;;;5053370;28;20398;-73
2022/09/16 11:33:05;;;;;;;3.80;3.50;;;14.90;99.90;;;;;;5052302;28;20381;-72
2022/09/16 11:35:58;;;;;;;3.67;3.38;;;14.90;99.90;;;;;;5042663;28;20461;-72
2022/09/16 11:38:38;;;;;;;4.70;3.80;;;14.80;99.90;;;;;;5051535;28;20390;-72
2022/09/16 11:41:26;;;;;;;3.30;3.10;;;14.70;99.90;;;;;;5048434;28;20943;-73
2022/09/16 11:44:14;;;;;;;4.83;3.50;;;14.70;99.90;;;;;;5034963;28;20405;-73
2022/09/16 11:47:11;;;;;;;4.68;3.20;;;14.70;99.90;;;;;;5049777;28;20883;-73
2022/09/16 11:50:21;;;;;;;3.10;2.90;;;14.60;99.90;;;;;;5030190;28;20399;-72
2022/09/16 11:52:52;;;;;;;3.80;3.40;;;14.60;99.90;;;;;;5036764;28;20391;-73
2022/09/16 11:55:56;;;;;;;3.95;3.55;;;14.70;99.90;;;;;;5046886;28;20410;-72
2022/09/16 11:58:27;;;;;;;4.07;3.70;;;14.80;99.90;;;;;;5047956;28;20964;-74
2022/09/16 12:00:56;;;;;;;4.80;3.10;;;14.70;99.90;;;;;;5051364;28;20409;-74
2022/09/16 12:03:27;;;;;;;3.40;3.10;;;14.70;99.90;;;;;;5047430;28;20427;-73
2022/09/16 12:06:07;;;;;;;4.60;3.10;;;14.70;99.90;;;;;;5046105;28;20487;-73
2022/09/16 12:09:02;;;;;;;4.80;3.00;;;14.60;99.90;;;;;;5041294;28;20476;-73
2022/09/16 12:11:37;;;;;;;4.30;3.20;;;14.60;99.90;;;;;;5046189;28;20392;-73
2022/09/16 12:14:21;;;;;;;3.40;3.10;;;14.70;99.90;;;;;;5034585;28;20402;-73
2022/09/16 12:17:03;;;;;;;3.53;3.22;;;14.80;99.90;;;;;;5052145;28;20394;-73
2022/09/16 12:20:32;;;;;;;3.78;3.40;;;14.90;99.90;;;;;;5052176;28;20443;-73
2022/09/16 12:23:13;;;;;;;4.17;3.20;;;14.80;99.90;;;;;;4971014;28;20832;-72
2022/09/16 12:25:46;;;;;;;4.30;3.80;;;14.60;99.90;;;;;;4971017;28;20916;-72
2022/09/16 12:28:19;;;;;;;4.30;4.00;;;14.50;99.90;;;;;;5024130;28;20452;-73
2022/09/16 12:30:51;;;;;;;6.13;4.00;;;14.50;99.90;;;;;;5034052;28;20451;-73
2022/09/16 12:33:52;;;;;;;4.60;4.05;;;14.60;99.90;;;;;;5051930;28;20434;-73
2022/09/16 12:36:23;;;;;;;4.40;4.03;;;14.70;99.90;;;;;;5022095;28;20412;-72
2022/09/16 12:38:48;;;;;;;4.47;4.07;;;14.80;99.90;;;;;;5060337;28;20432;-72
2022/09/16 12:41:29;;;;;;;4.40;4.00;;;14.90;99.90;;;;;;5055474;28;20489;-72
2022/09/16 12:43:57;;;;;;;4.18;3.63;;;14.80;99.90;;;;;;5048333;28;20495;-73
2022/09/16 12:46:47;;;;;;;4.65;4.25;;;14.70;99.90;;;;;;5035411;28;20422;-72
2022/09/16 12:49:33;;;;;;;4.80;4.30;;;14.60;99.90;;;;;;5054780;28;20413;-72
2022/09/16 12:52:24;;;;;;;5.40;4.60;;;14.70;99.90;;;;;;5061145;28;20380;-72
2022/09/16 12:55:23;;;;;;;5.00;4.60;;;14.60;99.90;;;;;;5053641;28;20391;-72
2022/09/16 12:58:18;;;;;;;4.90;4.38;;;14.70;99.90;;;;;;5053764;28;20390;-72
2022/09/16 13:01:08;;;;;;;4.80;4.40;;;14.60;99.90;;;;;;5071572;28;20391;-72
2022/09/16 13:03:40;;;;;;;4.55;4.15;;;14.50;99.90;;;;;;5070439;28;20414;-72
2022/09/16 13:06:33;;;;;;;6.20;4.40;;;14.50;99.90;;;;;;5051542;28;20456;-72
2022/09/16 13:09:25;;;;;;;4.55;4.25;;;14.50;99.90;;;;;;5057026;28;20827;-72
2022/09/16 13:11:59;;;;;;;4.85;4.45;;;14.50;99.90;;;;;;5048691;28;20385;-72
2022/09/16 13:14:35;;;;;;;4.28;3.88;;;14.60;99.90;;;;;;5050219;28;21000;-73
2022/09/16 13:17:01;;;;;;;5.40;4.18;;;14.60;99.90;;;;;;5050456;28;20535;-73